sensor_id;sensor_type;location;lat;lon;timestamp;P1;durP1;ratioP1;P2;durP2;ratioP2
15528;SDS011;7866;52.280;9.500;2023-03-11T00:00:51;5.13;;;4.73;;
15528;SDS011;7866;52.280;9.500;2023-03-11T00:05:53;5.43;;;5.03;;
15528;SDS011;7866;52.280;9.500;2023-03-11T00:10:58;4.90;;;4.50;;
15528;SDS011;7866;52.280;9.500;2023-03-11T00:16:02;4.40;;;4.07;;
15528;SDS011;7866;52.280;9.500;2023-03-11T00:21:04;4.17;;;3.87;;
15528;SDS011;7866;52.280;9.500;2023-03-11T00:26:06;4.00;;;3.70;;
15528;SDS011;7866;52.280;9.500;2023-03-11T00:31:10;4.20;;;3.90;;
15528;SDS011;7866;52.280;9.500;2023-03-11T00:36:17;3.30;;;3.10;;
15528;SDS011;7866;52.280;9.500;2023-03-11T00:41:23;3.37;;;3.07;;
15528;SDS011;7866;52.280;9.500;2023-03-11T00:46:26;3.03;;;2.73;;
15528;SDS011;7866;52.280;9.500;2023-03-11T00:51:30;4.10;;;2.60;;
15528;SDS011;7866;52.280;9.500;2023-03-11T00:56:31;2.80;;;2.60;;
15528;SDS011;7866;52.280;9.500;2023-03-11T01:01:34;2.90;;;2.70;;
15528;SDS011;7866;52.280;9.500;2023-03-11T01:06:36;3.40;;;3.20;;
15528;SDS011;7866;52.280;9.500;2023-03-11T01:11:37;3.40;;;3.10;;
15528;SDS011;7866;52.280;9.500;2023-03-11T01:16:40;4.17;;;3.77;;
15528;SDS011;7866;52.280;9.500;2023-03-11T01:21:42;3.10;;;2.90;;
15528;SDS011;7866;52.280;9.500;2023-03-11T01:26:44;2.90;;;2.70;;
15528;SDS011;7866;52.280;9.500;2023-03-11T01:31:47;3.40;;;3.03;;
15528;SDS011;7866;52.280;9.500;2023-03-11T01:36:48;3.47;;;2.80;;
15528;SDS011;7866;52.280;9.500;2023-03-11T01:41:50;2.70;;;2.50;;
15528;SDS011;7866;52.280;9.500;2023-03-11T01:52:31;3.10;;;2.90;;
15528;SDS011;7866;52.280;9.500;2023-03-11T01:57:33;2.80;;;2.60;;
15528;SDS011;7866;52.280;9.500;2023-03-11T02:02:39;3.40;;;2.40;;
15528;SDS011;7866;52.280;9.500;2023-03-11T02:07:44;3.47;;;2.47;;
15528;SDS011;7866;52.280;9.500;2023-03-11T02:12:46;3.13;;;2.63;;
15528;SDS011;7866;52.280;9.500;2023-03-11T02:17:50;2.43;;;2.23;;
15528;SDS011;7866;52.280;9.500;2023-03-11T02:22:56;3.10;;;2.50;;
15528;SDS011;7866;52.280;9.500;2023-03-11T02:28:02;3.63;;;2.50;;
15528;SDS011;7866;52.280;9.500;2023-03-11T02:33:07;3.30;;;2.13;;
15528;SDS011;7866;52.280;9.500;2023-03-11T02:38:09;3.30;;;2.70;;
15528;SDS011;7866;52.280;9.500;2023-03-11T02:43:13;2.73;;;2.40;;
15528;SDS011;7866;52.280;9.500;2023-03-11T02:48:18;5.40;;;2.37;;
15528;SDS011;7866;52.280;9.500;2023-03-11T02:53:21;2.30;;;2.10;;
15528;SDS011;7866;52.280;9.500;2023-03-11T02:58:24;4.20;;;2.30;;
15528;SDS011;7866;52.280;9.500;2023-03-11T03:03:26;5.13;;;2.67;;
15528;SDS011;7866;52.280;9.500;2023-03-11T03:08:27;3.40;;;2.60;;
15528;SDS011;7866;52.280;9.500;2023-03-11T03:13:30;4.47;;;2.27;;
15528;SDS011;7866;52.280;9.500;2023-03-11T03:18:32;4.77;;;2.40;;
15528;SDS011;7866;52.280;9.500;2023-03-11T03:23:34;5.63;;;2.60;;
15528;SDS011;7866;52.280;9.500;2023-03-11T03:28:38;3.13;;;2.20;;
15528;SDS011;7866;52.280;9.500;2023-03-11T03:33:39;3.87;;;2.07;;
15528;SDS011;7866;52.280;9.500;2023-03-11T03:38:41;4.90;;;2.00;;
15528;SDS011;7866;52.280;9.500;2023-03-11T03:43:44;4.97;;;2.07;;
15528;SDS011;7866;52.280;9.500;2023-03-11T03:48:46;5.80;;;2.40;;
15528;SDS011;7866;52.280;9.500;2023-03-11T03:53:48;4.73;;;2.37;;
15528;SDS011;7866;52.280;9.500;2023-03-11T03:58:51;4.17;;;2.10;;
15528;SDS011;7866;52.280;9.500;2023-03-11T04:03:53;6.63;;;2.30;;
15528;SDS011;7866;52.280;9.500;2023-03-11T04:08:54;6.93;;;2.37;;
15528;SDS011;7866;52.280;9.500;2023-03-11T04:13:58;5.77;;;1.97;;
15528;SDS011;7866;52.280;9.500;2023-03-11T04:19:01;4.10;;;2.00;;
15528;SDS011;7866;52.280;9.500;2023-03-11T04:24:03;3.13;;;2.37;;
15528;SDS011;7866;52.280;9.500;2023-03-11T04:29:07;5.67;;;2.40;;
15528;SDS011;7866;52.280;9.500;2023-03-11T04:34:08;5.27;;;2.20;;
15528;SDS011;7866;52.280;9.500;2023-03-11T04:39:10;6.70;;;2.10;;
15528;SDS011;7866;52.280;9.500;2023-03-11T04:44:13;4.30;;;2.20;;
15528;SDS011;7866;52.280;9.500;2023-03-11T04:49:14;4.10;;;2.20;;
15528;SDS011;7866;52.280;9.500;2023-03-11T04:54:16;3.77;;;2.20;;
15528;SDS011;7866;52.280;9.500;2023-03-11T04:59:19;4.87;;;1.93;;
15528;SDS011;7866;52.280;9.500;2023-03-11T05:04:21;5.70;;;2.10;;
15528;SDS011;7866;52.280;9.500;2023-03-11T05:09:22;5.77;;;2.10;;
15528;SDS011;7866;52.280;9.500;2023-03-11T05:14:25;4.63;;;1.90;;
15528;SDS011;7866;52.280;9.500;2023-03-11T05:19:27;4.27;;;2.00;;
15528;SDS011;7866;52.280;9.500;2023-03-11T05:24:33;3.37;;;2.17;;
15528;SDS011;7866;52.280;9.500;2023-03-11T05:29:36;3.50;;;1.93;;
15528;SDS011;7866;52.280;9.500;2023-03-11T05:34:38;4.47;;;1.90;;
15528;SDS011;7866;52.280;9.500;2023-03-11T05:39:40;5.03;;;2.00;;
15528;SDS011;7866;52.280;9.500;2023-03-11T05:44:43;3.13;;;1.80;;
15528;SDS011;7866;52.280;9.500;2023-03-11T05:49:45;4.70;;;1.97;;
15528;SDS011;7866;52.280;9.500;2023-03-11T05:54:48;3.40;;;2.03;;
15528;SDS011;7866;52.280;9.500;2023-03-11T05:59:51;4.70;;;1.97;;
15528;SDS011;7866;52.280;9.500;2023-03-11T06:04:53;2.93;;;1.83;;
15528;SDS011;7866;52.280;9.500;2023-03-11T06:09:55;6.43;;;1.97;;
15528;SDS011;7866;52.280;9.500;2023-03-11T06:14:58;3.50;;;1.80;;
15528;SDS011;7866;52.280;9.500;2023-03-11T06:19:59;3.53;;;1.50;;
15528;SDS011;7866;52.280;9.500;2023-03-11T06:25:01;3.83;;;1.77;;
15528;SDS011;7866;52.280;9.500;2023-03-11T06:30:04;5.23;;;1.73;;
15528;SDS011;7866;52.280;9.500;2023-03-11T06:35:07;5.00;;;1.80;;
15528;SDS011;7866;52.280;9.500;2023-03-11T06:40:10;5.30;;;1.60;;
15528;SDS011;7866;52.280;9.500;2023-03-11T06:45:14;6.10;;;2.27;;
15528;SDS011;7866;52.280;9.500;2023-03-11T06:50:15;1.50;;;1.20;;
15528;SDS011;7866;52.280;9.500;2023-03-11T06:55:17;4.37;;;1.70;;
15528;SDS011;7866;52.280;9.500;2023-03-11T07:00:21;2.47;;;1.63;;
15528;SDS011;7866;52.280;9.500;2023-03-11T07:05:23;3.53;;;1.70;;
15528;SDS011;7866;52.280;9.500;2023-03-11T07:10:25;7.20;;;1.90;;
15528;SDS011;7866;52.280;9.500;2023-03-11T07:15:28;3.43;;;1.57;;
15528;SDS011;7866;52.280;9.500;2023-03-11T07:20:30;3.17;;;1.67;;
15528;SDS011;7866;52.280;9.500;2023-03-11T07:25:31;4.10;;;1.80;;
15528;SDS011;7866;52.280;9.500;2023-03-11T07:30:34;4.17;;;2.03;;
15528;SDS011;7866;52.280;9.500;2023-03-11T07:35:38;2.07;;;1.87;;
15528;SDS011;7866;52.280;9.500;2023-03-11T07:40:40;3.67;;;1.83;;
15528;SDS011;7866;52.280;9.500;2023-03-11T07:45:43;3.27;;;1.40;;
15528;SDS011;7866;52.280;9.500;2023-03-11T07:50:45;7.47;;;1.60;;
15528;SDS011;7866;52.280;9.500;2023-03-11T07:55:46;2.80;;;1.80;;
15528;SDS011;7866;52.280;9.500;2023-03-11T08:00:49;4.17;;;1.67;;
15528;SDS011;7866;52.280;9.500;2023-03-11T08:05:51;2.77;;;1.67;;
15528;SDS011;7866;52.280;9.500;2023-03-11T08:10:53;5.20;;;1.60;;
15528;SDS011;7866;52.280;9.500;2023-03-11T08:15:56;2.53;;;1.57;;
15528;SDS011;7866;52.280;9.500;2023-03-11T08:20:58;3.97;;;2.60;;
15528;SDS011;7866;52.280;9.500;2023-03-11T08:26:01;4.90;;;2.40;;
15528;SDS011;7866;52.280;9.500;2023-03-11T08:31:11;5.20;;;1.80;;
15528;SDS011;7866;52.280;9.500;2023-03-11T08:36:14;4.63;;;2.10;;
15528;SDS011;7866;52.280;9.500;2023-03-11T08:41:15;4.20;;;1.90;;
15528;SDS011;7866;52.280;9.500;2023-03-11T08:46:20;3.00;;;1.80;;
15528;SDS011;7866;52.280;9.500;2023-03-11T08:51:24;3.67;;;1.50;;
15528;SDS011;7866;52.280;9.500;2023-03-11T08:56:26;3.33;;;1.40;;
15528;SDS011;7866;52.280;9.500;2023-03-11T09:01:29;4.53;;;1.87;;
15528;SDS011;7866;52.280;9.500;2023-03-11T09:06:31;4.13;;;1.60;;
15528;SDS011;7866;52.280;9.500;2023-03-11T09:11:32;3.83;;;1.57;;
15528;SDS011;7866;52.280;9.500;2023-03-11T09:16:37;3.43;;;1.47;;
15528;SDS011;7866;52.280;9.500;2023-03-11T09:21:39;5.10;;;1.60;;
15528;SDS011;7866;52.280;9.500;2023-03-11T09:26:41;6.50;;;1.60;;
15528;SDS011;7866;52.280;9.500;2023-03-11T09:31:44;5.77;;;2.57;;
15528;SDS011;7866;52.280;9.500;2023-03-11T09:36:46;2.07;;;1.87;;
15528;SDS011;7866;52.280;9.500;2023-03-11T09:41:49;5.70;;;2.13;;
15528;SDS011;7866;52.280;9.500;2023-03-11T09:47:02;3.93;;;1.90;;
15528;SDS011;7866;52.280;9.500;2023-03-11T09:52:13;5.83;;;1.63;;
15528;SDS011;7866;52.280;9.500;2023-03-11T09:57:16;2.00;;;1.50;;
15528;SDS011;7866;52.280;9.500;2023-03-11T10:02:23;2.70;;;1.47;;
15528;SDS011;7866;52.280;9.500;2023-03-11T10:07:27;5.60;;;2.10;;
15528;SDS011;7866;52.280;9.500;2023-03-11T10:12:37;3.27;;;1.80;;
15528;SDS011;7866;52.280;9.500;2023-03-11T10:17:54;6.27;;;1.67;;
15528;SDS011;7866;52.280;9.500;2023-03-11T10:23:08;4.57;;;1.43;;
15528;SDS011;7866;52.280;9.500;2023-03-11T10:28:18;3.20;;;1.53;;
15528;SDS011;7866;52.280;9.500;2023-03-11T10:33:25;3.97;;;1.40;;
15528;SDS011;7866;52.280;9.500;2023-03-11T10:38:33;2.20;;;1.17;;
15528;SDS011;7866;52.280;9.500;2023-03-11T10:43:42;2.33;;;1.47;;
15528;SDS011;7866;52.280;9.500;2023-03-11T10:48:50;5.80;;;1.73;;
15528;SDS011;7866;52.280;9.500;2023-03-11T10:53:52;3.33;;;2.00;;
15528;SDS011;7866;52.280;9.500;2023-03-11T10:58:55;4.77;;;1.63;;
15528;SDS011;7866;52.280;9.500;2023-03-11T11:03:59;6.23;;;1.73;;
15528;SDS011;7866;52.280;9.500;2023-03-11T11:09:14;2.47;;;1.50;;
15528;SDS011;7866;52.280;9.500;2023-03-11T11:14:18;5.93;;;1.63;;
15528;SDS011;7866;52.280;9.500;2023-03-11T11:19:23;2.93;;;1.60;;
15528;SDS011;7866;52.280;9.500;2023-03-11T11:24:27;9.70;;;1.73;;
15528;SDS011;7866;52.280;9.500;2023-03-11T11:29:29;5.43;;;1.70;;
15528;SDS011;7866;52.280;9.500;2023-03-11T11:34:33;5.00;;;2.00;;
15528;SDS011;7866;52.280;9.500;2023-03-11T11:39:36;7.17;;;1.80;;
15528;SDS011;7866;52.280;9.500;2023-03-11T11:44:51;3.80;;;1.93;;
15528;SDS011;7866;52.280;9.500;2023-03-11T11:49:59;2.70;;;1.50;;
15528;SDS011;7866;52.280;9.500;2023-03-11T11:55:05;3.70;;;1.80;;
15528;SDS011;7866;52.280;9.500;2023-03-11T12:00:17;2.00;;;1.27;;
15528;SDS011;7866;52.280;9.500;2023-03-11T12:05:22;2.60;;;1.60;;
15528;SDS011;7866;52.280;9.500;2023-03-11T12:10:31;4.03;;;1.40;;
15528;SDS011;7866;52.280;9.500;2023-03-11T12:15:35;2.90;;;1.53;;
15528;SDS011;7866;52.280;9.500;2023-03-11T12:20:42;5.17;;;1.30;;
15528;SDS011;7866;52.280;9.500;2023-03-11T12:25:54;3.53;;;1.50;;
15528;SDS011;7866;52.280;9.500;2023-03-11T12:31:07;3.33;;;1.90;;
15528;SDS011;7866;52.280;9.500;2023-03-11T12:36:21;5.47;;;2.17;;
15528;SDS011;7866;52.280;9.500;2023-03-11T12:41:25;7.80;;;1.40;;
15528;SDS011;7866;52.280;9.500;2023-03-11T12:52:05;7.37;;;1.50;;
15528;SDS011;7866;52.280;9.500;2023-03-11T12:57:26;4.17;;;1.43;;
15528;SDS011;7866;52.280;9.500;2023-03-11T13:02:40;2.13;;;1.17;;
15528;SDS011;7866;52.280;9.500;2023-03-11T13:07:57;3.50;;;1.20;;
15528;SDS011;7866;52.280;9.500;2023-03-11T13:13:01;4.17;;;1.33;;
15528;SDS011;7866;52.280;9.500;2023-03-11T13:18:21;4.50;;;1.87;;
15528;SDS011;7866;52.280;9.500;2023-03-11T13:23:30;1.80;;;1.70;;
15528;SDS011;7866;52.280;9.500;2023-03-11T13:28:41;8.37;;;1.70;;
15528;SDS011;7866;52.280;9.500;2023-03-11T13:33:52;6.00;;;1.30;;
15528;SDS011;7866;52.280;9.500;2023-03-11T13:39:14;4.03;;;1.27;;
15528;SDS011;7866;52.280;9.500;2023-03-11T13:44:37;5.73;;;1.90;;
15528;SDS011;7866;52.280;9.500;2023-03-11T13:49:41;4.10;;;2.70;;
15528;SDS011;7866;52.280;9.500;2023-03-11T13:54:48;1.40;;;1.23;;
15528;SDS011;7866;52.280;9.500;2023-03-11T13:59:56;4.13;;;1.30;;
15528;SDS011;7866;52.280;9.500;2023-03-11T14:05:02;4.70;;;1.30;;
15528;SDS011;7866;52.280;9.500;2023-03-11T14:10:12;3.47;;;1.33;;
15528;SDS011;7866;52.280;9.500;2023-03-11T14:15:20;5.77;;;3.00;;
15528;SDS011;7866;52.280;9.500;2023-03-11T14:20:25;4.10;;;2.07;;
15528;SDS011;7866;52.280;9.500;2023-03-11T14:25:29;3.73;;;3.30;;
15528;SDS011;7866;52.280;9.500;2023-03-11T14:30:32;2.97;;;1.50;;
15528;SDS011;7866;52.280;9.500;2023-03-11T14:35:34;3.97;;;1.47;;
15528;SDS011;7866;52.280;9.500;2023-03-11T14:40:37;2.87;;;1.40;;
15528;SDS011;7866;52.280;9.500;2023-03-11T14:45:40;3.90;;;1.50;;
15528;SDS011;7866;52.280;9.500;2023-03-11T14:50:44;3.37;;;1.90;;
15528;SDS011;7866;52.280;9.500;2023-03-11T14:55:50;2.50;;;1.60;;
15528;SDS011;7866;52.280;9.500;2023-03-11T15:00:58;4.40;;;1.67;;
15528;SDS011;7866;52.280;9.500;2023-03-11T15:06:05;2.07;;;1.13;;
15528;SDS011;7866;52.280;9.500;2023-03-11T15:11:20;5.23;;;1.60;;
15528;SDS011;7866;52.280;9.500;2023-03-11T15:16:34;5.03;;;1.40;;
15528;SDS011;7866;52.280;9.500;2023-03-11T15:21:36;3.73;;;1.70;;
15528;SDS011;7866;52.280;9.500;2023-03-11T15:26:52;3.47;;;1.27;;
15528;SDS011;7866;52.280;9.500;2023-03-11T15:31:55;7.87;;;2.00;;
15528;SDS011;7866;52.280;9.500;2023-03-11T15:37:14;1.47;;;1.37;;
15528;SDS011;7866;52.280;9.500;2023-03-11T15:42:21;2.30;;;1.30;;
15528;SDS011;7866;52.280;9.500;2023-03-11T15:47:24;4.47;;;1.40;;
15528;SDS011;7866;52.280;9.500;2023-03-11T15:52:26;5.83;;;1.40;;
15528;SDS011;7866;52.280;9.500;2023-03-11T15:57:29;4.33;;;1.20;;
15528;SDS011;7866;52.280;9.500;2023-03-11T16:02:31;2.00;;;1.27;;
15528;SDS011;7866;52.280;9.500;2023-03-11T16:07:32;3.90;;;1.10;;
15528;SDS011;7866;52.280;9.500;2023-03-11T16:12:35;6.57;;;1.77;;
15528;SDS011;7866;52.280;9.500;2023-03-11T16:17:37;4.43;;;1.10;;
15528;SDS011;7866;52.280;9.500;2023-03-11T16:22:39;2.63;;;0.93;;
15528;SDS011;7866;52.280;9.500;2023-03-11T16:27:42;2.83;;;1.20;;
15528;SDS011;7866;52.280;9.500;2023-03-11T16:32:44;4.07;;;1.20;;
15528;SDS011;7866;52.280;9.500;2023-03-11T16:37:45;2.17;;;1.10;;
15528;SDS011;7866;52.280;9.500;2023-03-11T16:42:49;2.57;;;1.23;;
15528;SDS011;7866;52.280;9.500;2023-03-11T16:47:50;6.33;;;3.07;;
15528;SDS011;7866;52.280;9.500;2023-03-11T16:52:53;4.77;;;2.60;;
15528;SDS011;7866;52.280;9.500;2023-03-11T16:57:56;2.37;;;1.47;;
15528;SDS011;7866;52.280;9.500;2023-03-11T17:02:58;2.83;;;1.30;;
15528;SDS011;7866;52.280;9.500;2023-03-11T17:08:00;2.63;;;1.53;;
15528;SDS011;7866;52.280;9.500;2023-03-11T17:13:04;4.90;;;1.40;;
15528;SDS011;7866;52.280;9.500;2023-03-11T17:18:06;4.10;;;1.63;;
15528;SDS011;7866;52.280;9.500;2023-03-11T17:23:08;1.77;;;1.33;;
15528;SDS011;7866;52.280;9.500;2023-03-11T17:28:11;1.70;;;1.40;;
15528;SDS011;7866;52.280;9.500;2023-03-11T17:33:13;4.93;;;1.60;;
15528;SDS011;7866;52.280;9.500;2023-03-11T17:38:14;3.87;;;1.70;;
15528;SDS011;7866;52.280;9.500;2023-03-11T17:43:17;2.83;;;2.07;;
15528;SDS011;7866;52.280;9.500;2023-03-11T17:48:19;2.40;;;1.83;;
15528;SDS011;7866;52.280;9.500;2023-03-11T17:53:21;2.17;;;1.40;;
15528;SDS011;7866;52.280;9.500;2023-03-11T17:58:24;2.13;;;1.70;;
15528;SDS011;7866;52.280;9.500;2023-03-11T18:03:25;5.77;;;1.93;;
15528;SDS011;7866;52.280;9.500;2023-03-11T18:08:27;3.30;;;1.90;;
15528;SDS011;7866;52.280;9.500;2023-03-11T18:13:31;3.17;;;1.77;;
15528;SDS011;7866;52.280;9.500;2023-03-11T18:18:33;3.07;;;1.60;;
15528;SDS011;7866;52.280;9.500;2023-03-11T18:23:37;3.50;;;1.40;;
15528;SDS011;7866;52.280;9.500;2023-03-11T18:28:41;4.63;;;2.67;;
15528;SDS011;7866;52.280;9.500;2023-03-11T18:33:45;4.10;;;2.40;;
15528;SDS011;7866;52.280;9.500;2023-03-11T18:38:50;5.03;;;1.90;;
15528;SDS011;7866;52.280;9.500;2023-03-11T18:43:54;4.47;;;1.80;;
15528;SDS011;7866;52.280;9.500;2023-03-11T18:48:57;2.73;;;1.60;;
15528;SDS011;7866;52.280;9.500;2023-03-11T18:54:00;2.43;;;1.70;;
15528;SDS011;7866;52.280;9.500;2023-03-11T18:59:04;3.07;;;1.90;;
15528;SDS011;7866;52.280;9.500;2023-03-11T19:04:08;2.77;;;1.40;;
15528;SDS011;7866;52.280;9.500;2023-03-11T19:09:10;3.67;;;1.80;;
15528;SDS011;7866;52.280;9.500;2023-03-11T19:14:13;2.70;;;2.00;;
15528;SDS011;7866;52.280;9.500;2023-03-11T19:19:14;5.40;;;1.90;;
15528;SDS011;7866;52.280;9.500;2023-03-11T19:24:16;2.77;;;1.57;;
15528;SDS011;7866;52.280;9.500;2023-03-11T19:29:19;2.87;;;1.90;;
15528;SDS011;7866;52.280;9.500;2023-03-11T19:34:22;2.57;;;1.87;;
15528;SDS011;7866;52.280;9.500;2023-03-11T19:39:26;2.60;;;1.80;;
15528;SDS011;7866;52.280;9.500;2023-03-11T19:44:29;4.27;;;1.80;;
15528;SDS011;7866;52.280;9.500;2023-03-11T19:49:30;3.27;;;1.67;;
15528;SDS011;7866;52.280;9.500;2023-03-11T19:54:32;2.27;;;1.60;;
15528;SDS011;7866;52.280;9.500;2023-03-11T19:59:35;2.60;;;1.90;;
15528;SDS011;7866;52.280;9.500;2023-03-11T20:04:36;2.63;;;2.27;;
15528;SDS011;7866;52.280;9.500;2023-03-11T20:09:38;2.83;;;1.50;;
15528;SDS011;7866;52.280;9.500;2023-03-11T20:14:41;2.90;;;1.97;;
15528;SDS011;7866;52.280;9.500;2023-03-11T20:19:44;1.63;;;1.40;;
15528;SDS011;7866;52.280;9.500;2023-03-11T20:24:45;2.27;;;1.50;;
15528;SDS011;7866;52.280;9.500;2023-03-11T20:29:49;2.83;;;1.40;;
15528;SDS011;7866;52.280;9.500;2023-03-11T20:34:51;2.90;;;1.60;;
15528;SDS011;7866;52.280;9.500;2023-03-11T20:39:52;6.30;;;1.70;;
15528;SDS011;7866;52.280;9.500;2023-03-11T20:44:55;4.17;;;2.07;;
15528;SDS011;7866;52.280;9.500;2023-03-11T20:49:57;3.43;;;1.40;;
15528;SDS011;7866;52.280;9.500;2023-03-11T20:54:59;1.90;;;1.60;;
15528;SDS011;7866;52.280;9.500;2023-03-11T21:00:02;2.20;;;1.60;;
15528;SDS011;7866;52.280;9.500;2023-03-11T21:05:07;4.23;;;1.70;;
15528;SDS011;7866;52.280;9.500;2023-03-11T21:10:10;3.20;;;1.37;;
15528;SDS011;7866;52.280;9.500;2023-03-11T21:15:14;2.43;;;1.33;;
15528;SDS011;7866;52.280;9.500;2023-03-11T21:20:16;3.20;;;1.60;;
15528;SDS011;7866;52.280;9.500;2023-03-11T21:25:17;3.67;;;1.60;;
15528;SDS011;7866;52.280;9.500;2023-03-11T21:30:20;3.13;;;1.40;;
15528;SDS011;7866;52.280;9.500;2023-03-11T21:35:22;1.97;;;1.40;;
15528;SDS011;7866;52.280;9.500;2023-03-11T21:40:24;2.00;;;1.67;;
15528;SDS011;7866;52.280;9.500;2023-03-11T21:45:27;2.00;;;1.60;;
15528;SDS011;7866;52.280;9.500;2023-03-11T21:50:28;3.33;;;1.50;;
15528;SDS011;7866;52.280;9.500;2023-03-11T21:55:30;5.33;;;1.50;;
15528;SDS011;7866;52.280;9.500;2023-03-11T22:00:33;2.50;;;1.70;;
15528;SDS011;7866;52.280;9.500;2023-03-11T22:05:35;3.57;;;1.90;;
15528;SDS011;7866;52.280;9.500;2023-03-11T22:10:37;3.07;;;1.47;;
15528;SDS011;7866;52.280;9.500;2023-03-11T22:15:40;2.10;;;1.70;;
15528;SDS011;7866;52.280;9.500;2023-03-11T22:20:42;3.90;;;1.80;;
15528;SDS011;7866;52.280;9.500;2023-03-11T22:25:44;1.50;;;1.37;;
15528;SDS011;7866;52.280;9.500;2023-03-11T22:30:47;1.60;;;1.50;;
15528;SDS011;7866;52.280;9.500;2023-03-11T22:35:49;3.87;;;1.70;;
15528;SDS011;7866;52.280;9.500;2023-03-11T22:40:52;3.30;;;1.60;;
15528;SDS011;7866;52.280;9.500;2023-03-11T22:45:55;4.60;;;1.90;;
15528;SDS011;7866;52.280;9.500;2023-03-11T22:50:57;3.03;;;2.00;;
15528;SDS011;7866;52.280;9.500;2023-03-11T22:55:59;2.97;;;1.57;;
15528;SDS011;7866;52.280;9.500;2023-03-11T23:01:02;3.77;;;1.80;;
15528;SDS011;7866;52.280;9.500;2023-03-11T23:06:05;3.53;;;1.80;;
15528;SDS011;7866;52.280;9.500;2023-03-11T23:11:09;2.57;;;1.67;;
15528;SDS011;7866;52.280;9.500;2023-03-11T23:16:14;2.20;;;1.63;;
15528;SDS011;7866;52.280;9.500;2023-03-11T23:21:17;2.93;;;1.67;;
15528;SDS011;7866;52.280;9.500;2023-03-11T23:26:22;1.60;;;1.50;;
15528;SDS011;7866;52.280;9.500;2023-03-11T23:31:26;2.10;;;1.60;;
15528;SDS011;7866;52.280;9.500;2023-03-11T23:36:28;4.37;;;1.60;;
15528;SDS011;7866;52.280;9.500;2023-03-11T23:41:30;1.90;;;1.57;;
15528;SDS011;7866;52.280;9.500;2023-03-11T23:46:33;1.87;;;1.43;;
15528;SDS011;7866;52.280;9.500;2023-03-11T23:51:35;2.90;;;1.70;;
15528;SDS011;7866;52.280;9.500;2023-03-11T23:56:36;1.70;;;1.43;;
